Arlington, Ohio
Current Conditions -  °F | °C
As of 3:16 PM on Thursday 29 Jan 2015 (Local Time) from KFDY Reporting Station
Haze Haze  
Wind Chill: 28°   Ceiling: 600
Heat Index: 37°   Visibility: 2mi
Dew Point: 34°   Wind: 14mph
Humidity: 89%   Direction: 270°W
Pressure: 29.76"   Gusts: NA
Location:  40.89°N, 83.65°W
Report Text: KFDY 292016Z AUTO 27012KT 2SM BR BKN006 OVC011 03/01 A2976 RMK AO2 UPB1955E03 CIG 004V008 P0000 T00280011
Loading
Personal Weather Stations






























Interactive Weather Map New forecast layout! Learn more

10-Day Weather Forecast

Advertisements
Track Severe Weather on mobile